Estación Meteorológica Peña el Pijo (Robertgarden) [ 12/09/19 16:35:52 CET ]

Fecha Hora Presion(HPa) Temp (°C) Humedad % Rocio (°C) Viento ( m/s) Direccion Lluvia 1Hora(mm) Lluvia 24H(mm) LLuvia Total(mm)
2019-Aug-23 01:01:32 1014.600 17.1 76 12.8       0.51 372.15
2019-Aug-23 02:01:43 1014.200 15.4 79 11.8       0.51 372.15
2019-Aug-23 03:05:10 1014.200 14.2 82 11.2       0.51 372.15
2019-Aug-23 04:01:44 1013.800 13.1 84 10.4       0.51 372.15
2019-Aug-23 05:01:38 1013.800 12.1 85 9.6       0.51 372.15
2019-Aug-23 06:01:37 1013.700 11.3 86 9.0       0.51 372.15
2019-Aug-23 07:01:59 1013.300 10.5 87 8.4       0.51 372.15
2019-Aug-23 08:01:45 1014.100 10.1 87 8.0       0.51 372.15
2019-Aug-23 09:01:47 1014.200 14.3 88 12.3       0.51 372.15
2019-Aug-23 10:01:44 1014.200 19.3 73 14.3         372.15
2019-Aug-23 11:01:47 1014.000 24.1 51 13.4         372.15
2019-Aug-23 12:01:54 1014.000 26.3 38 10.8 0.4 SW     372.15
2019-Aug-23 13:01:48 1013.500 28.6 34 11.1 0.3 ESE     372.15
2019-Aug-23 14:01:42 1013.300 29.9 28 9.3         372.15
2019-Aug-23 15:01:39 1012.600 30.8 28 10.0         372.15
2019-Aug-23 16:01:50 1012.300 30.6 30 11.1         372.15
2019-Aug-23 17:01:58 1012.000 31.0 31 11.8         372.15
2019-Aug-23 18:01:40 1011.900 29.2 33 11.2 1.6 SW     372.15
2019-Aug-23 19:01:41 1011.900 27.4 37 11.3         372.15
2019-Aug-23 20:01:41 1012.000 24.6 41 10.5 0.9 SW     372.15
2019-Aug-23 21:01:48 1012.400 22.4 45 9.8         372.15
2019-Aug-23 22:01:41 1013.200 19.9 51 9.5         372.15
2019-Aug-23 23:01:46 1013.400 18.3 59 10.1         372.15

Temperatura Máxima:31°    Temperatura Mínima:10°
Presión Máxima:1014.600 Hpa    Presión Mínima:1011.900 Hpa


Volver